sensor_id;sensor_type;location;lat;lon;timestamp;temperature;humidity
20481;DHT22;10399;50.754;3.366;2023-11-21T00:01:18;11.20;99.90
20481;DHT22;10399;50.754;3.366;2023-11-21T00:03:46;11.20;99.90
20481;DHT22;10399;50.754;3.366;2023-11-21T00:06:13;11.10;99.90
20481;DHT22;10399;50.754;3.366;2023-11-21T00:08:41;11.00;99.90
20481;DHT22;10399;50.754;3.366;2023-11-21T00:11:08;11.00;99.90
20481;DHT22;10399;50.754;3.366;2023-11-21T00:13:35;11.00;99.90
20481;DHT22;10399;50.754;3.366;2023-11-21T00:16:02;11.10;99.90
20481;DHT22;10399;50.754;3.366;2023-11-21T00:18:30;10.80;99.90
20481;DHT22;10399;50.754;3.366;2023-11-21T00:20:57;10.80;99.90
20481;DHT22;10399;50.754;3.366;2023-11-21T00:23:26;10.90;99.90
20481;DHT22;10399;50.754;3.366;2023-11-21T00:25:53;10.90;99.90
20481;DHT22;10399;50.754;3.366;2023-11-21T00:28:20;11.00;99.90
20481;DHT22;10399;50.754;3.366;2023-11-21T00:30:47;11.00;99.90
20481;DHT22;10399;50.754;3.366;2023-11-21T00:33:15;11.10;99.90
20481;DHT22;10399;50.754;3.366;2023-11-21T00:35:43;11.00;99.90
20481;DHT22;10399;50.754;3.366;2023-11-21T00:38:10;11.00;99.90
20481;DHT22;10399;50.754;3.366;2023-11-21T00:40:37;11.10;99.90
20481;DHT22;10399;50.754;3.366;2023-11-21T00:43:05;11.30;99.90
20481;DHT22;10399;50.754;3.366;2023-11-21T00:45:32;11.50;99.90
20481;DHT22;10399;50.754;3.366;2023-11-21T00:47:59;11.40;99.90
20481;DHT22;10399;50.754;3.366;2023-11-21T00:50:27;11.50;99.90
20481;DHT22;10399;50.754;3.366;2023-11-21T00:52:54;11.50;99.90
20481;DHT22;10399;50.754;3.366;2023-11-21T00:55:21;11.40;99.90
20481;DHT22;10399;50.754;3.366;2023-11-21T00:57:48;11.30;99.90
20481;DHT22;10399;50.754;3.366;2023-11-21T01:00:16;11.40;99.90
20481;DHT22;10399;50.754;3.366;2023-11-21T01:02:46;11.40;99.90
20481;DHT22;10399;50.754;3.366;2023-11-21T01:05:15;11.60;99.90
20481;DHT22;10399;50.754;3.366;2023-11-21T01:07:43;11.50;99.90
20481;DHT22;10399;50.754;3.366;2023-11-21T01:10:10;11.70;99.90
20481;DHT22;10399;50.754;3.366;2023-11-21T01:12:38;11.90;99.90
20481;DHT22;10399;50.754;3.366;2023-11-21T01:15:06;12.00;99.90
20481;DHT22;10399;50.754;3.366;2023-11-21T01:17:35;12.10;99.90
20481;DHT22;10399;50.754;3.366;2023-11-21T01:20:03;12.00;99.90
20481;DHT22;10399;50.754;3.366;2023-11-21T01:22:38;11.80;99.90
20481;DHT22;10399;50.754;3.366;2023-11-21T01:25:06;11.80;99.90
20481;DHT22;10399;50.754;3.366;2023-11-21T01:27:34;11.80;99.90
20481;DHT22;10399;50.754;3.366;2023-11-21T01:30:02;11.80;99.90
20481;DHT22;10399;50.754;3.366;2023-11-21T01:32:30;11.70;99.90
20481;DHT22;10399;50.754;3.366;2023-11-21T01:34:57;11.60;99.90
20481;DHT22;10399;50.754;3.366;2023-11-21T01:37:24;11.50;99.90
20481;DHT22;10399;50.754;3.366;2023-11-21T01:39:54;11.30;99.90
20481;DHT22;10399;50.754;3.366;2023-11-21T01:42:22;11.30;99.90
20481;DHT22;10399;50.754;3.366;2023-11-21T01:44:50;11.30;99.90
20481;DHT22;10399;50.754;3.366;2023-11-21T01:47:17;11.30;99.90
20481;DHT22;10399;50.754;3.366;2023-11-21T01:49:45;11.40;99.90
20481;DHT22;10399;50.754;3.366;2023-11-21T01:52:13;11.40;99.90
20481;DHT22;10399;50.754;3.366;2023-11-21T01:54:41;11.40;99.90
20481;DHT22;10399;50.754;3.366;2023-11-21T01:57:09;11.40;99.90
20481;DHT22;10399;50.754;3.366;2023-11-21T01:59:37;11.40;99.90
20481;DHT22;10399;50.754;3.366;2023-11-21T02:02:06;11.50;99.90
20481;DHT22;10399;50.754;3.366;2023-11-21T02:04:34;11.50;99.90
20481;DHT22;10399;50.754;3.366;2023-11-21T02:07:01;11.30;99.90
20481;DHT22;10399;50.754;3.366;2023-11-21T02:09:28;11.20;99.90
20481;DHT22;10399;50.754;3.366;2023-11-21T02:12:05;11.30;99.90
20481;DHT22;10399;50.754;3.366;2023-11-21T02:14:32;11.40;99.90
20481;DHT22;10399;50.754;3.366;2023-11-21T02:17:00;11.40;99.90
20481;DHT22;10399;50.754;3.366;2023-11-21T02:19:28;11.40;99.90
20481;DHT22;10399;50.754;3.366;2023-11-21T02:21:57;11.40;99.90
20481;DHT22;10399;50.754;3.366;2023-11-21T02:24:27;11.30;99.90
20481;DHT22;10399;50.754;3.366;2023-11-21T02:26:55;11.40;99.90
20481;DHT22;10399;50.754;3.366;2023-11-21T02:29:23;11.50;99.90
20481;DHT22;10399;50.754;3.366;2023-11-21T02:31:55;11.50;99.90
20481;DHT22;10399;50.754;3.366;2023-11-21T02:34:23;11.40;99.90
20481;DHT22;10399;50.754;3.366;2023-11-21T02:36:52;11.30;99.90
20481;DHT22;10399;50.754;3.366;2023-11-21T02:39:21;11.30;99.90
20481;DHT22;10399;50.754;3.366;2023-11-21T02:41:51;11.20;99.90
20481;DHT22;10399;50.754;3.366;2023-11-21T02:44:18;11.30;99.90
20481;DHT22;10399;50.754;3.366;2023-11-21T02:46:45;11.40;99.90
20481;DHT22;10399;50.754;3.366;2023-11-21T02:49:14;11.40;99.90
20481;DHT22;10399;50.754;3.366;2023-11-21T02:51:41;11.30;99.90
20481;DHT22;10399;50.754;3.366;2023-11-21T02:54:08;11.30;99.90
20481;DHT22;10399;50.754;3.366;2023-11-21T02:56:35;11.40;99.90
20481;DHT22;10399;50.754;3.366;2023-11-21T02:59:03;11.70;99.90
20481;DHT22;10399;50.754;3.366;2023-11-21T03:01:30;12.00;99.90
20481;DHT22;10399;50.754;3.366;2023-11-21T03:03:58;12.00;99.90
20481;DHT22;10399;50.754;3.366;2023-11-21T03:06:25;12.00;99.90
20481;DHT22;10399;50.754;3.366;2023-11-21T03:08:52;12.00;99.90
20481;DHT22;10399;50.754;3.366;2023-11-21T03:11:20;11.90;99.90
20481;DHT22;10399;50.754;3.366;2023-11-21T03:13:47;11.90;99.90
20481;DHT22;10399;50.754;3.366;2023-11-21T03:16:16;11.80;99.90
20481;DHT22;10399;50.754;3.366;2023-11-21T03:18:43;11.60;99.90
20481;DHT22;10399;50.754;3.366;2023-11-21T03:21:12;11.80;99.90
20481;DHT22;10399;50.754;3.366;2023-11-21T03:23:40;11.90;99.90
20481;DHT22;10399;50.754;3.366;2023-11-21T03:26:12;11.90;99.90
20481;DHT22;10399;50.754;3.366;2023-11-21T03:28:40;11.90;99.90
20481;DHT22;10399;50.754;3.366;2023-11-21T03:31:08;12.00;99.90
20481;DHT22;10399;50.754;3.366;2023-11-21T03:33:38;12.00;99.90
20481;DHT22;10399;50.754;3.366;2023-11-21T03:36:05;12.10;99.90
20481;DHT22;10399;50.754;3.366;2023-11-21T03:38:34;12.00;99.90
20481;DHT22;10399;50.754;3.366;2023-11-21T03:41:01;11.90;99.90
20481;DHT22;10399;50.754;3.366;2023-11-21T03:43:28;11.90;99.90
20481;DHT22;10399;50.754;3.366;2023-11-21T03:45:56;12.00;99.90
20481;DHT22;10399;50.754;3.366;2023-11-21T03:48:23;12.00;99.90
20481;DHT22;10399;50.754;3.366;2023-11-21T03:50:50;11.90;99.90
20481;DHT22;10399;50.754;3.366;2023-11-21T03:53:17;12.00;99.90
20481;DHT22;10399;50.754;3.366;2023-11-21T03:55:44;12.10;99.90
20481;DHT22;10399;50.754;3.366;2023-11-21T03:58:12;12.00;99.90
20481;DHT22;10399;50.754;3.366;2023-11-21T04:00:39;11.90;99.90
20481;DHT22;10399;50.754;3.366;2023-11-21T04:03:06;12.00;99.90
20481;DHT22;10399;50.754;3.366;2023-11-21T04:05:34;12.10;99.90
20481;DHT22;10399;50.754;3.366;2023-11-21T04:08:01;12.00;99.90
20481;DHT22;10399;50.754;3.366;2023-11-21T04:10:28;12.00;99.90
20481;DHT22;10399;50.754;3.366;2023-11-21T04:12:55;12.10;99.90
20481;DHT22;10399;50.754;3.366;2023-11-21T04:15:22;12.10;99.90
20481;DHT22;10399;50.754;3.366;2023-11-21T04:17:49;12.10;99.90
20481;DHT22;10399;50.754;3.366;2023-11-21T04:20:17;11.90;99.90
20481;DHT22;10399;50.754;3.366;2023-11-21T04:22:44;11.80;99.90
20481;DHT22;10399;50.754;3.366;2023-11-21T04:25:14;11.80;99.90
20481;DHT22;10399;50.754;3.366;2023-11-21T04:27:43;12.00;99.90
20481;DHT22;10399;50.754;3.366;2023-11-21T04:30:11;11.90;99.90
20481;DHT22;10399;50.754;3.366;2023-11-21T04:32:39;11.90;99.90
20481;DHT22;10399;50.754;3.366;2023-11-21T04:35:06;11.90;99.90
20481;DHT22;10399;50.754;3.366;2023-11-21T04:37:35;11.80;99.90
20481;DHT22;10399;50.754;3.366;2023-11-21T04:40:03;11.70;99.90
20481;DHT22;10399;50.754;3.366;2023-11-21T04:42:37;11.80;99.90
20481;DHT22;10399;50.754;3.366;2023-11-21T04:45:05;11.70;99.90
20481;DHT22;10399;50.754;3.366;2023-11-21T04:47:36;11.70;99.90
20481;DHT22;10399;50.754;3.366;2023-11-21T04:50:04;11.90;99.90
20481;DHT22;10399;50.754;3.366;2023-11-21T04:52:32;12.00;99.90
20481;DHT22;10399;50.754;3.366;2023-11-21T04:55:00;12.00;99.90
20481;DHT22;10399;50.754;3.366;2023-11-21T04:57:28;11.90;99.90
20481;DHT22;10399;50.754;3.366;2023-11-21T04:59:55;11.80;99.90
20481;DHT22;10399;50.754;3.366;2023-11-21T05:02:22;11.80;99.90
20481;DHT22;10399;50.754;3.366;2023-11-21T05:05:04;11.80;99.90
20481;DHT22;10399;50.754;3.366;2023-11-21T05:07:33;11.80;99.90
20481;DHT22;10399;50.754;3.366;2023-11-21T05:10:04;11.80;99.90
20481;DHT22;10399;50.754;3.366;2023-11-21T05:12:34;11.80;99.90
20481;DHT22;10399;50.754;3.366;2023-11-21T05:15:04;11.80;99.90
20481;DHT22;10399;50.754;3.366;2023-11-21T05:17:39;11.80;99.90
20481;DHT22;10399;50.754;3.366;2023-11-21T05:20:11;11.80;99.90
20481;DHT22;10399;50.754;3.366;2023-11-21T05:22:40;11.90;99.90
20481;DHT22;10399;50.754;3.366;2023-11-21T05:25:07;12.00;99.90
20481;DHT22;10399;50.754;3.366;2023-11-21T05:27:35;11.80;99.90
20481;DHT22;10399;50.754;3.366;2023-11-21T05:30:03;11.80;99.90
20481;DHT22;10399;50.754;3.366;2023-11-21T05:32:33;11.80;99.90
20481;DHT22;10399;50.754;3.366;2023-11-21T05:35:01;11.80;99.90
20481;DHT22;10399;50.754;3.366;2023-11-21T05:37:28;11.90;99.90
20481;DHT22;10399;50.754;3.366;2023-11-21T05:39:55;12.00;99.90
20481;DHT22;10399;50.754;3.366;2023-11-21T05:42:26;12.00;99.90
20481;DHT22;10399;50.754;3.366;2023-11-21T05:44:54;11.90;99.90
20481;DHT22;10399;50.754;3.366;2023-11-21T05:47:21;11.90;99.90
20481;DHT22;10399;50.754;3.366;2023-11-21T05:49:49;12.00;99.90
20481;DHT22;10399;50.754;3.366;2023-11-21T05:52:18;11.90;99.90
20481;DHT22;10399;50.754;3.366;2023-11-21T05:54:45;11.90;99.90
20481;DHT22;10399;50.754;3.366;2023-11-21T05:57:13;11.90;99.90
20481;DHT22;10399;50.754;3.366;2023-11-21T05:59:40;11.80;99.90
20481;DHT22;10399;50.754;3.366;2023-11-21T06:02:07;11.80;99.90
20481;DHT22;10399;50.754;3.366;2023-11-21T06:04:34;11.80;99.90
20481;DHT22;10399;50.754;3.366;2023-11-21T06:07:03;11.80;99.90
20481;DHT22;10399;50.754;3.366;2023-11-21T06:09:31;11.90;99.90
20481;DHT22;10399;50.754;3.366;2023-11-21T06:11:58;11.80;99.90
20481;DHT22;10399;50.754;3.366;2023-11-21T06:14:26;11.80;99.90
20481;DHT22;10399;50.754;3.366;2023-11-21T06:16:54;11.80;99.90
20481;DHT22;10399;50.754;3.366;2023-11-21T06:19:23;11.90;99.90
20481;DHT22;10399;50.754;3.366;2023-11-21T06:21:50;11.90;99.90
20481;DHT22;10399;50.754;3.366;2023-11-21T06:24:18;11.90;99.90
20481;DHT22;10399;50.754;3.366;2023-11-21T06:26:47;11.90;99.90
20481;DHT22;10399;50.754;3.366;2023-11-21T06:29:15;11.90;99.90
20481;DHT22;10399;50.754;3.366;2023-11-21T06:31:43;11.90;99.90
20481;DHT22;10399;50.754;3.366;2023-11-21T06:34:10;11.90;99.90
20481;DHT22;10399;50.754;3.366;2023-11-21T06:36:37;12.00;99.90
20481;DHT22;10399;50.754;3.366;2023-11-21T06:39:04;12.00;99.90
20481;DHT22;10399;50.754;3.366;2023-11-21T06:41:35;12.00;99.90
20481;DHT22;10399;50.754;3.366;2023-11-21T06:44:05;12.00;99.90
20481;DHT22;10399;50.754;3.366;2023-11-21T06:46:32;12.10;99.90
20481;DHT22;10399;50.754;3.366;2023-11-21T06:49:00;12.00;99.90
20481;DHT22;10399;50.754;3.366;2023-11-21T06:51:27;12.00;99.90
20481;DHT22;10399;50.754;3.366;2023-11-21T06:53:54;12.00;99.90
20481;DHT22;10399;50.754;3.366;2023-11-21T06:56:21;12.00;99.90
20481;DHT22;10399;50.754;3.366;2023-11-21T06:58:48;12.20;99.90
20481;DHT22;10399;50.754;3.366;2023-11-21T07:01:15;12.20;99.90
20481;DHT22;10399;50.754;3.366;2023-11-21T07:03:43;12.20;99.90
20481;DHT22;10399;50.754;3.366;2023-11-21T07:06:10;12.20;99.90
20481;DHT22;10399;50.754;3.366;2023-11-21T07:08:38;12.20;99.90
20481;DHT22;10399;50.754;3.366;2023-11-21T07:11:05;12.20;99.90
20481;DHT22;10399;50.754;3.366;2023-11-21T07:13:32;12.20;99.90
20481;DHT22;10399;50.754;3.366;2023-11-21T07:16:00;12.20;99.90
20481;DHT22;10399;50.754;3.366;2023-11-21T07:18:27;12.20;99.90
20481;DHT22;10399;50.754;3.366;2023-11-21T07:20:54;12.20;99.90
20481;DHT22;10399;50.754;3.366;2023-11-21T07:23:21;12.20;99.90
20481;DHT22;10399;50.754;3.366;2023-11-21T07:25:49;12.20;99.90
20481;DHT22;10399;50.754;3.366;2023-11-21T07:28:16;12.20;99.90
20481;DHT22;10399;50.754;3.366;2023-11-21T07:30:43;12.20;99.90
20481;DHT22;10399;50.754;3.366;2023-11-21T07:33:10;12.30;99.90
20481;DHT22;10399;50.754;3.366;2023-11-21T07:35:38;12.30;99.90
20481;DHT22;10399;50.754;3.366;2023-11-21T07:38:04;12.30;99.90
20481;DHT22;10399;50.754;3.366;2023-11-21T07:40:32;12.40;99.90
20481;DHT22;10399;50.754;3.366;2023-11-21T07:42:59;12.30;99.90
20481;DHT22;10399;50.754;3.366;2023-11-21T07:45:26;12.40;99.90
20481;DHT22;10399;50.754;3.366;2023-11-21T07:47:54;12.30;99.90
20481;DHT22;10399;50.754;3.366;2023-11-21T07:50:22;12.30;99.90
20481;DHT22;10399;50.754;3.366;2023-11-21T07:52:49;12.20;99.90
20481;DHT22;10399;50.754;3.366;2023-11-21T07:55:17;12.30;99.90
20481;DHT22;10399;50.754;3.366;2023-11-21T07:57:44;12.30;99.90
20481;DHT22;10399;50.754;3.366;2023-11-21T08:00:12;12.30;99.90
20481;DHT22;10399;50.754;3.366;2023-11-21T08:02:40;12.30;99.90
20481;DHT22;10399;50.754;3.366;2023-11-21T08:05:09;12.30;99.90
20481;DHT22;10399;50.754;3.366;2023-11-21T08:07:50;12.30;99.90
20481;DHT22;10399;50.754;3.366;2023-11-21T08:10:18;12.30;99.90
20481;DHT22;10399;50.754;3.366;2023-11-21T08:12:45;12.30;99.90
20481;DHT22;10399;50.754;3.366;2023-11-21T08:15:14;12.40;99.90
20481;DHT22;10399;50.754;3.366;2023-11-21T08:17:42;12.50;99.90
20481;DHT22;10399;50.754;3.366;2023-11-21T08:20:09;12.60;99.90
20481;DHT22;10399;50.754;3.366;2023-11-21T08:22:37;12.60;99.90
20481;DHT22;10399;50.754;3.366;2023-11-21T08:25:08;12.50;99.90
20481;DHT22;10399;50.754;3.366;2023-11-21T08:27:35;12.60;99.90
20481;DHT22;10399;50.754;3.366;2023-11-21T08:30:05;12.70;99.90
20481;DHT22;10399;50.754;3.366;2023-11-21T08:32:34;12.70;99.90
20481;DHT22;10399;50.754;3.366;2023-11-21T08:35:01;12.70;99.90
20481;DHT22;10399;50.754;3.366;2023-11-21T08:37:28;12.70;99.90
20481;DHT22;10399;50.754;3.366;2023-11-21T08:39:58;12.60;99.90
20481;DHT22;10399;50.754;3.366;2023-11-21T08:42:29;12.60;99.90
20481;DHT22;10399;50.754;3.366;2023-11-21T08:44:57;12.60;99.90
20481;DHT22;10399;50.754;3.366;2023-11-21T08:47:28;12.60;99.90
20481;DHT22;10399;50.754;3.366;2023-11-21T08:49:55;12.70;99.90
20481;DHT22;10399;50.754;3.366;2023-11-21T08:52:22;12.60;99.90
20481;DHT22;10399;50.754;3.366;2023-11-21T08:54:50;12.70;99.90
20481;DHT22;10399;50.754;3.366;2023-11-21T08:57:23;12.80;99.90
20481;DHT22;10399;50.754;3.366;2023-11-21T08:59:50;12.80;99.90
20481;DHT22;10399;50.754;3.366;2023-11-21T09:02:23;12.80;99.90
20481;DHT22;10399;50.754;3.366;2023-11-21T09:04:51;12.90;99.90
20481;DHT22;10399;50.754;3.366;2023-11-21T09:07:19;12.90;99.90
20481;DHT22;10399;50.754;3.366;2023-11-21T09:09:47;13.10;99.90
20481;DHT22;10399;50.754;3.366;2023-11-21T09:12:15;13.30;99.90
20481;DHT22;10399;50.754;3.366;2023-11-21T09:14:43;13.30;99.90
20481;DHT22;10399;50.754;3.366;2023-11-21T09:17:11;13.40;99.90
20481;DHT22;10399;50.754;3.366;2023-11-21T09:19:38;13.50;99.90
20481;DHT22;10399;50.754;3.366;2023-11-21T09:22:06;13.50;99.90
20481;DHT22;10399;50.754;3.366;2023-11-21T09:24:33;13.60;99.90
20481;DHT22;10399;50.754;3.366;2023-11-21T09:27:03;13.70;99.90
20481;DHT22;10399;50.754;3.366;2023-11-21T09:29:32;13.90;99.90
20481;DHT22;10399;50.754;3.366;2023-11-21T09:31:59;14.10;99.90
20481;DHT22;10399;50.754;3.366;2023-11-21T09:34:26;14.30;99.90
20481;DHT22;10399;50.754;3.366;2023-11-21T09:36:53;14.40;99.90
20481;DHT22;10399;50.754;3.366;2023-11-21T09:39:20;14.50;99.90
20481;DHT22;10399;50.754;3.366;2023-11-21T09:41:52;14.80;99.90
20481;DHT22;10399;50.754;3.366;2023-11-21T09:44:35;15.00;99.90
20481;DHT22;10399;50.754;3.366;2023-11-21T09:47:02;15.30;99.90
20481;DHT22;10399;50.754;3.366;2023-11-21T09:49:31;15.50;99.90
20481;DHT22;10399;50.754;3.366;2023-11-21T09:52:01;15.70;99.90
20481;DHT22;10399;50.754;3.366;2023-11-21T09:54:31;15.70;99.90
20481;DHT22;10399;50.754;3.366;2023-11-21T09:56:59;16.00;99.90
20481;DHT22;10399;50.754;3.366;2023-11-21T09:59:30;15.80;99.90
20481;DHT22;10399;50.754;3.366;2023-11-21T10:02:02;16.00;99.90
20481;DHT22;10399;50.754;3.366;2023-11-21T10:04:31;15.90;99.90
20481;DHT22;10399;50.754;3.366;2023-11-21T10:06:58;16.20;99.90
20481;DHT22;10399;50.754;3.366;2023-11-21T10:09:26;16.40;99.90
20481;DHT22;10399;50.754;3.366;2023-11-21T10:11:54;16.30;99.90
20481;DHT22;10399;50.754;3.366;2023-11-21T10:14:24;16.20;99.90
20481;DHT22;10399;50.754;3.366;2023-11-21T10:16:53;16.30;99.90
20481;DHT22;10399;50.754;3.366;2023-11-21T10:19:21;16.20;99.90
20481;DHT22;10399;50.754;3.366;2023-11-21T10:21:51;16.20;99.90
20481;DHT22;10399;50.754;3.366;2023-11-21T10:24:18;16.30;99.90
20481;DHT22;10399;50.754;3.366;2023-11-21T10:26:45;16.10;99.90
20481;DHT22;10399;50.754;3.366;2023-11-21T10:29:20;15.80;99.90
20481;DHT22;10399;50.754;3.366;2023-11-21T10:31:50;15.70;99.90
20481;DHT22;10399;50.754;3.366;2023-11-21T10:34:19;15.60;99.90
20481;DHT22;10399;50.754;3.366;2023-11-21T10:36:47;15.50;99.90
20481;DHT22;10399;50.754;3.366;2023-11-21T10:39:21;15.40;99.90
20481;DHT22;10399;50.754;3.366;2023-11-21T10:41:50;15.20;99.90
20481;DHT22;10399;50.754;3.366;2023-11-21T10:44:18;15.10;99.90
20481;DHT22;10399;50.754;3.366;2023-11-21T10:46:52;15.00;99.90
20481;DHT22;10399;50.754;3.366;2023-11-21T10:49:25;14.90;99.90
20481;DHT22;10399;50.754;3.366;2023-11-21T10:51:53;14.80;99.90
20481;DHT22;10399;50.754;3.366;2023-11-21T10:54:22;14.80;99.90
20481;DHT22;10399;50.754;3.366;2023-11-21T10:57:00;14.80;99.90
20481;DHT22;10399;50.754;3.366;2023-11-21T10:59:29;14.80;99.90
20481;DHT22;10399;50.754;3.366;2023-11-21T11:01:58;14.80;99.90
20481;DHT22;10399;50.754;3.366;2023-11-21T11:04:28;14.80;99.90
20481;DHT22;10399;50.754;3.366;2023-11-21T11:06:59;14.80;99.90
20481;DHT22;10399;50.754;3.366;2023-11-21T11:09:28;14.80;99.90
20481;DHT22;10399;50.754;3.366;2023-11-21T11:11:57;14.70;99.90
20481;DHT22;10399;50.754;3.366;2023-11-21T11:14:24;14.80;99.90
20481;DHT22;10399;50.754;3.366;2023-11-21T11:16:54;14.70;99.90
20481;DHT22;10399;50.754;3.366;2023-11-21T11:19:26;14.80;99.90
20481;DHT22;10399;50.754;3.366;2023-11-21T11:25:12;14.70;99.90
20481;DHT22;10399;50.754;3.366;2023-11-21T11:27:58;14.70;99.90
20481;DHT22;10399;50.754;3.366;2023-11-21T11:33:36;14.90;99.90
20481;DHT22;10399;50.754;3.366;2023-11-21T11:38:45;14.90;99.90
20481;DHT22;10399;50.754;3.366;2023-11-21T11:41:13;15.30;99.90
20481;DHT22;10399;50.754;3.366;2023-11-21T11:43:40;15.50;99.90
20481;DHT22;10399;50.754;3.366;2023-11-21T11:46:11;15.60;99.90
20481;DHT22;10399;50.754;3.366;2023-11-21T11:48:42;15.60;99.90
20481;DHT22;10399;50.754;3.366;2023-11-21T11:51:15;15.50;99.90
20481;DHT22;10399;50.754;3.366;2023-11-21T11:53:49;15.70;99.90
20481;DHT22;10399;50.754;3.366;2023-11-21T11:56:30;15.80;99.90
20481;DHT22;10399;50.754;3.366;2023-11-21T11:59:02;15.90;99.90
20481;DHT22;10399;50.754;3.366;2023-11-21T12:01:32;16.20;99.90
20481;DHT22;10399;50.754;3.366;2023-11-21T12:06:46;16.50;99.90
20481;DHT22;10399;50.754;3.366;2023-11-21T12:09:23;16.70;99.90
20481;DHT22;10399;50.754;3.366;2023-11-21T12:11:52;16.60;99.90
20481;DHT22;10399;50.754;3.366;2023-11-21T12:14:19;16.50;99.90
20481;DHT22;10399;50.754;3.366;2023-11-21T12:16:47;16.70;99.90
20481;DHT22;10399;50.754;3.366;2023-11-21T12:19:15;16.60;99.90
20481;DHT22;10399;50.754;3.366;2023-11-21T12:21:42;16.60;99.90
20481;DHT22;10399;50.754;3.366;2023-11-21T12:24:10;16.40;99.90
20481;DHT22;10399;50.754;3.366;2023-11-21T12:26:42;16.40;99.90
20481;DHT22;10399;50.754;3.366;2023-11-21T12:29:11;16.50;99.90
20481;DHT22;10399;50.754;3.366;2023-11-21T12:31:38;16.80;99.90
20481;DHT22;10399;50.754;3.366;2023-11-21T12:34:07;17.00;99.90
20481;DHT22;10399;50.754;3.366;2023-11-21T12:36:38;17.40;99.90
20481;DHT22;10399;50.754;3.366;2023-11-21T12:39:05;17.40;99.90
20481;DHT22;10399;50.754;3.366;2023-11-21T12:41:32;17.50;99.90
20481;DHT22;10399;50.754;3.366;2023-11-21T12:44:00;17.70;99.90
20481;DHT22;10399;50.754;3.366;2023-11-21T12:46:28;17.90;99.90
20481;DHT22;10399;50.754;3.366;2023-11-21T12:49:00;18.10;99.90
20481;DHT22;10399;50.754;3.366;2023-11-21T12:51:28;18.20;99.90
20481;DHT22;10399;50.754;3.366;2023-11-21T12:53:56;18.20;99.90
20481;DHT22;10399;50.754;3.366;2023-11-21T12:56:23;18.00;99.90
20481;DHT22;10399;50.754;3.366;2023-11-21T12:58:50;17.80;99.90
20481;DHT22;10399;50.754;3.366;2023-11-21T13:01:21;17.70;99.90
20481;DHT22;10399;50.754;3.366;2023-11-21T13:03:54;17.20;99.90
20481;DHT22;10399;50.754;3.366;2023-11-21T13:06:21;16.90;99.90
20481;DHT22;10399;50.754;3.366;2023-11-21T13:08:52;16.60;99.90
20481;DHT22;10399;50.754;3.366;2023-11-21T13:11:19;16.40;99.90
20481;DHT22;10399;50.754;3.366;2023-11-21T13:13:46;16.30;99.90
20481;DHT22;10399;50.754;3.366;2023-11-21T13:16:14;16.30;99.90
20481;DHT22;10399;50.754;3.366;2023-11-21T13:18:42;16.20;99.90
20481;DHT22;10399;50.754;3.366;2023-11-21T13:21:10;16.00;99.90
20481;DHT22;10399;50.754;3.366;2023-11-21T13:23:41;15.90;99.90
20481;DHT22;10399;50.754;3.366;2023-11-21T13:26:09;15.80;99.90
20481;DHT22;10399;50.754;3.366;2023-11-21T13:28:37;15.60;99.90
20481;DHT22;10399;50.754;3.366;2023-11-21T13:31:05;15.50;99.90
20481;DHT22;10399;50.754;3.366;2023-11-21T13:33:49;15.50;99.90
20481;DHT22;10399;50.754;3.366;2023-11-21T13:36:23;15.00;99.90
20481;DHT22;10399;50.754;3.366;2023-11-21T13:38:51;14.90;99.90
20481;DHT22;10399;50.754;3.366;2023-11-21T13:41:21;15.10;99.90
20481;DHT22;10399;50.754;3.366;2023-11-21T13:43:55;15.40;99.90
20481;DHT22;10399;50.754;3.366;2023-11-21T13:46:30;15.60;99.90
20481;DHT22;10399;50.754;3.366;2023-11-21T13:49:04;15.50;99.90
20481;DHT22;10399;50.754;3.366;2023-11-21T13:51:36;15.70;99.90
20481;DHT22;10399;50.754;3.366;2023-11-21T13:54:15;15.80;99.90
20481;DHT22;10399;50.754;3.366;2023-11-21T13:56:49;15.70;99.90
20481;DHT22;10399;50.754;3.366;2023-11-21T13:59:17;15.70;99.90
20481;DHT22;10399;50.754;3.366;2023-11-21T14:01:48;15.60;99.90
20481;DHT22;10399;50.754;3.366;2023-11-21T14:04:43;15.60;99.90
20481;DHT22;10399;50.754;3.366;2023-11-21T14:07:27;15.50;99.90
20481;DHT22;10399;50.754;3.366;2023-11-21T14:10:04;15.30;99.90
20481;DHT22;10399;50.754;3.366;2023-11-21T14:12:40;15.20;99.90
20481;DHT22;10399;50.754;3.366;2023-11-21T14:15:09;15.50;99.90
20481;DHT22;10399;50.754;3.366;2023-11-21T14:17:38;15.70;99.90
20481;DHT22;10399;50.754;3.366;2023-11-21T14:20:09;15.80;99.90
20481;DHT22;10399;50.754;3.366;2023-11-21T14:22:43;15.60;99.90
20481;DHT22;10399;50.754;3.366;2023-11-21T14:25:11;15.70;99.90
20481;DHT22;10399;50.754;3.366;2023-11-21T14:27:39;16.00;99.90
20481;DHT22;10399;50.754;3.366;2023-11-21T14:30:06;16.00;99.90
20481;DHT22;10399;50.754;3.366;2023-11-21T14:32:33;16.00;99.90
20481;DHT22;10399;50.754;3.366;2023-11-21T14:35:02;15.70;99.90
20481;DHT22;10399;50.754;3.366;2023-11-21T14:37:33;15.70;99.90
20481;DHT22;10399;50.754;3.366;2023-11-21T14:40:11;15.70;99.90
20481;DHT22;10399;50.754;3.366;2023-11-21T14:42:39;15.30;99.90
20481;DHT22;10399;50.754;3.366;2023-11-21T14:45:07;15.20;99.90
20481;DHT22;10399;50.754;3.366;2023-11-21T14:47:34;15.10;99.90
20481;DHT22;10399;50.754;3.366;2023-11-21T14:50:02;15.10;99.90
20481;DHT22;10399;50.754;3.366;2023-11-21T14:52:49;14.90;99.90
20481;DHT22;10399;50.754;3.366;2023-11-21T14:55:26;14.70;99.90
20481;DHT22;10399;50.754;3.366;2023-11-21T14:57:59;14.50;99.90
20481;DHT22;10399;50.754;3.366;2023-11-21T15:00:31;14.40;99.90
20481;DHT22;10399;50.754;3.366;2023-11-21T15:03:02;14.30;99.90
20481;DHT22;10399;50.754;3.366;2023-11-21T15:05:31;14.30;99.90
20481;DHT22;10399;50.754;3.366;2023-11-21T15:07:58;14.20;99.90
20481;DHT22;10399;50.754;3.366;2023-11-21T15:10:40;14.10;99.90
20481;DHT22;10399;50.754;3.366;2023-11-21T15:13:16;14.00;99.90
20481;DHT22;10399;50.754;3.366;2023-11-21T15:15:43;13.90;99.90
20481;DHT22;10399;50.754;3.366;2023-11-21T15:18:16;14.00;99.90
20481;DHT22;10399;50.754;3.366;2023-11-21T15:20:44;14.00;99.90
20481;DHT22;10399;50.754;3.366;2023-11-21T15:23:11;13.80;99.90
20481;DHT22;10399;50.754;3.366;2023-11-21T15:25:39;13.80;99.90
20481;DHT22;10399;50.754;3.366;2023-11-21T15:28:07;13.80;99.90
20481;DHT22;10399;50.754;3.366;2023-11-21T15:30:34;13.70;99.90
20481;DHT22;10399;50.754;3.366;2023-11-21T15:33:01;13.70;99.90
20481;DHT22;10399;50.754;3.366;2023-11-21T15:35:30;13.70;99.90
20481;DHT22;10399;50.754;3.366;2023-11-21T15:37:58;13.70;99.90
20481;DHT22;10399;50.754;3.366;2023-11-21T15:40:26;13.70;99.90
20481;DHT22;10399;50.754;3.366;2023-11-21T15:42:54;13.70;99.90
20481;DHT22;10399;50.754;3.366;2023-11-21T15:45:21;13.70;99.90
20481;DHT22;10399;50.754;3.366;2023-11-21T15:47:51;13.60;99.90
20481;DHT22;10399;50.754;3.366;2023-11-21T15:50:18;13.60;99.90
20481;DHT22;10399;50.754;3.366;2023-11-21T15:52:45;13.50;99.90